Appleton, MN

7:40 AM CDT on October 20, 2017 (GMT -0500)
Appleton Municipal

Weather History for KAQP - October, 2013

Change the Weather History Date:

Thursday, October 17, 2013

  Actual Average Record
Temperature  
Mean Temperature 42 °F -  
Max Temperature 48 °F 55 °F 78 °F (2017)
Min Temperature 37 °F 34 °F 28 °F (2001)
Degree Days  
Heating Degree Days 22    
Moisture  
Dew Point 38 °F    
Average Humidity 85    
Maximum Humidity 93    
Minimum Humidity 76    
Precipitation  
Precipitation 0.19 in - - ()
Sea Level Pressure  
Sea Level Pressure 29.87 in    
Wind  
Wind Speed 7 mph (WNW)    
Max Wind Speed 24 mph    
Max Gust Speed 31 mph    
Visibility 10 miles    
Events Rain    
Averages and records for this station are not official NWS values.
T = Trace of Precipitation, MM = Missing Value Source: NWS Daily Summary

Daily Weather History Graph

Daily Weather History Graph

Search for Another Location

Airport or City:

Trip Planner

Search our weather history database for the weather conditions in past years. The results will help you decide how hot, cold, wet, or windy it might be!

Date:

Astronomy

Oct. 17, 2013 Rise Set
Actual Time 7:42 AM CDT 6:34 PM CDT
Civil Twilight 7:13 AM CDT 7:04 PM CDT
Nautical Twilight 6:38 AM CDT 7:38 PM CDT
Astronomical Twilight 6:04 AM CDT 8:12 PM CDT
Moon 5:51 PM CDT (10/17) 6:13 AM CDT (10/17)
Length of Visible Light 11h 51m
Length of Day
10h 51m
Waxing Gibbous, 98% of the Moon is Illuminated
Oct 17
Waxing Gibbous
Oct 18
Full
Oct 26
Last Quarter
Nov 3
New
Nov 9
First Quarter

Hourly Weather History & Observations

Time (CDT) Temp. Windchill Dew Point Humidity Pressure Visibility Wind Dir Wind Speed Gust Speed Precip Events Conditions
12:14 AM 39.2 °F 37.0 °F 33.8 °F 81% 29.85 in 10.0 mi SSW 3.5 mph - N/A   Clear
12:33 AM 39.2 °F - 33.8 °F 81% 29.85 in 10.0 mi Calm Calm - N/A   Clear
12:54 AM 37.4 °F 34.9 °F 33.8 °F 87% 29.84 in 10.0 mi SSW 3.5 mph - N/A   Clear
1:13 AM 37.4 °F 33.8 °F 33.8 °F 87% 29.84 in 10.0 mi SSW 4.6 mph - N/A   Clear
1:33 AM 37.4 °F - 33.8 °F 87% 29.84 in 10.0 mi Calm Calm - N/A   Clear
1:53 AM 39.2 °F 37.0 °F 35.6 °F 87% 29.84 in 10.0 mi SSW 3.5 mph - N/A   Clear
2:13 AM 39.2 °F 35.9 °F 35.6 °F 87% 29.83 in 10.0 mi SSW 4.6 mph - N/A   Clear
2:34 AM 39.2 °F 37.0 °F 35.6 °F 87% 29.83 in 10.0 mi SSW 3.5 mph - N/A   Clear
2:53 AM 39.2 °F 37.0 °F 35.6 °F 87% 29.83 in 10.0 mi SSW 3.5 mph - N/A   Clear
3:14 AM 39.2 °F 37.0 °F 35.6 °F 87% 29.83 in 10.0 mi SSW 3.5 mph - N/A   Clear
3:33 AM 39.2 °F - 35.6 °F 87% 29.82 in 10.0 mi Calm Calm - N/A   Clear
3:53 AM 39.2 °F - 35.6 °F 87% 29.82 in 10.0 mi Calm Calm - N/A   Clear
4:13 AM 39.2 °F 37.0 °F 35.6 °F 87% 29.81 in 10.0 mi SSW 3.5 mph - N/A   Clear
4:34 AM 39.2 °F 37.0 °F 35.6 °F 87% 29.81 in 10.0 mi South 3.5 mph - N/A   Clear
4:53 AM 41.0 °F - 37.4 °F 87% 29.81 in 10.0 mi Calm Calm - N/A   Scattered Clouds
5:13 AM 42.8 °F 41.1 °F 37.4 °F 81% 29.80 in 10.0 mi SSW 3.5 mph - N/A   Overcast
5:33 AM 42.8 °F 41.1 °F 37.4 °F 81% 29.81 in 10.0 mi SW 3.5 mph - N/A   Overcast
5:53 AM 42.8 °F - 37.4 °F 81% 29.80 in 10.0 mi Calm Calm - N/A   Overcast
6:13 AM 42.8 °F - 37.4 °F 81% 29.80 in 10.0 mi Calm Calm - N/A   Overcast
6:33 AM 42.8 °F - 37.4 °F 81% 29.80 in 10.0 mi Calm Calm - N/A   Overcast
6:54 AM 42.8 °F - 39.2 °F 87% 29.79 in 10.0 mi Calm Calm - N/A   Overcast
7:14 AM 42.8 °F - 39.2 °F 87% 29.80 in 10.0 mi Calm Calm - N/A   Overcast
7:34 AM 42.8 °F 41.1 °F 39.2 °F 87% 29.80 in 10.0 mi SW 3.5 mph - N/A   Overcast
7:54 AM 42.8 °F 41.1 °F 39.2 °F 87% 29.80 in 10.0 mi WSW 3.5 mph - N/A   Overcast
8:14 AM 42.8 °F 41.1 °F 39.2 °F 87% 29.80 in 10.0 mi West 3.5 mph - N/A   Overcast
8:33 AM 44.6 °F 42.2 °F 39.2 °F 81% 29.81 in 10.0 mi West 4.6 mph - N/A   Overcast
8:53 AM 44.6 °F 40.7 °F 39.2 °F 81% 29.82 in 10.0 mi WNW 6.9 mph - N/A   Mostly Cloudy
9:13 AM 44.6 °F 41.4 °F 39.2 °F 81% 29.82 in 10.0 mi WNW 5.8 mph - N/A   Overcast
9:34 AM 44.6 °F 40.7 °F 41.0 °F 87% 29.83 in 10.0 mi NW 6.9 mph - N/A   Overcast
9:53 AM 46.4 °F 42.4 °F 41.0 °F 81% 29.83 in 10.0 mi NNW 8.1 mph - N/A   Overcast
10:13 AM 46.4 °F 41.5 °F 41.0 °F 81% 29.83 in 10.0 mi NNW 10.4 mph - N/A   Overcast
10:34 AM 46.4 °F 41.9 °F 42.8 °F 87% 29.83 in 10.0 mi NNW 9.2 mph - N/A   Overcast
10:53 AM 48.2 °F - 44.6 °F 87% 29.83 in 10.0 mi North 11.5 mph - N/A   Overcast
11:14 AM 48.2 °F - 44.6 °F 87% 29.84 in 10.0 mi NNW 15.0 mph 19.6 mph N/A   Overcast
11:33 AM 48.2 °F - 42.8 °F 82% 29.85 in 10.0 mi NNW 16.1 mph 20.7 mph N/A   Overcast
11:53 AM 46.4 °F 39.8 °F 42.8 °F 87% 29.85 in 10.0 mi NNW 16.1 mph - N/A   Overcast
12:13 PM 46.4 °F 40.1 °F 42.8 °F 87% 29.85 in 10.0 mi NNW 15.0 mph 23.0 mph N/A   Overcast
12:33 PM 46.4 °F 40.1 °F 42.8 °F 87% 29.86 in 5.0 mi NNW 15.0 mph 23.0 mph N/A Rain Light Rain
12:54 PM 44.6 °F 36.9 °F 42.8 °F 93% 29.86 in 10.0 mi NNW 18.4 mph - 0.02 in Rain Light Rain
1:13 PM 44.6 °F 36.1 °F 41.0 °F 87% 29.87 in 10.0 mi NNW 21.9 mph 25.3 mph 0.02 in Rain Light Rain
1:34 PM 44.6 °F 36.6 °F 39.2 °F 81% 29.87 in 7.0 mi NNW 19.6 mph 25.3 mph 0.05 in Rain Heavy Rain
1:53 PM 42.8 °F 34.0 °F 39.2 °F 87% 29.87 in 10.0 mi NNW 20.7 mph 26.5 mph 0.05 in Rain Light Rain
2:13 PM 42.8 °F 33.8 °F 37.4 °F 81% 29.87 in 10.0 mi NNW 21.9 mph 31.1 mph N/A   Light Drizzle
2:33 PM 42.8 °F 33.3 °F 37.4 °F 81% 29.88 in 10.0 mi NNW 24.2 mph 29.9 mph N/A Rain Light Rain
2:53 PM 42.8 °F 33.5 °F 37.4 °F 81% 29.88 in 10.0 mi NNW 23.0 mph 31.1 mph 0.01 in Rain Light Rain
3:13 PM 41.0 °F 31.4 °F 37.4 °F 87% 29.88 in 10.0 mi NNW 21.9 mph 26.5 mph N/A Rain Light Rain
3:33 PM 41.0 °F 32.2 °F 37.4 °F 87% 29.89 in 10.0 mi NNW 18.4 mph 21.9 mph 0.02 in Rain Light Rain
3:53 PM 41.0 °F 31.6 °F 37.4 °F 87% 29.89 in 10.0 mi NNW 20.7 mph 27.6 mph 0.04 in Rain Light Rain
4:14 PM 41.0 °F 33.1 °F 37.4 °F 87% 29.90 in 10.0 mi NNW 15.0 mph 25.3 mph 0.01 in Rain Rain
4:33 PM 42.8 °F 34.8 °F 39.2 °F 87% 29.90 in 10.0 mi NW 17.3 mph 21.9 mph 0.03 in Rain Light Rain
4:53 PM 41.0 °F 32.8 °F 37.4 °F 87% 29.91 in 10.0 mi NNW 16.1 mph 21.9 mph 0.03 in Rain Rain
5:13 PM 42.8 °F 35.1 °F 37.4 °F 81% 29.91 in 10.0 mi NNW 16.1 mph 20.7 mph N/A Rain Light Rain
5:33 PM 42.8 °F 35.8 °F 37.4 °F 81% 29.91 in 10.0 mi NNW 13.8 mph 17.3 mph 0.02 in Rain Light Rain
5:53 PM 42.8 °F 36.2 °F 39.2 °F 87% 29.92 in 10.0 mi NNW 12.7 mph 17.3 mph 0.03 in Rain Light Rain
6:13 PM 42.8 °F 36.6 °F 39.2 °F 87% 29.93 in 10.0 mi NNW 11.5 mph - N/A Rain Light Rain
6:33 PM 42.8 °F 37.0 °F 39.2 °F 87% 29.93 in 10.0 mi NW 10.4 mph - 0.01 in   Drizzle
6:53 PM 42.8 °F 38.0 °F 39.2 °F 87% 29.93 in 10.0 mi NW 8.1 mph - 0.01 in Rain Rain
7:13 PM 42.8 °F 36.2 °F 39.2 °F 87% 29.93 in 10.0 mi NW 12.7 mph - N/A Rain Light Rain
7:33 PM 42.8 °F 38.0 °F 37.4 °F 81% 29.94 in 10.0 mi NNW 8.1 mph - N/A Rain Rain
7:54 PM 42.8 °F 38.0 °F 37.4 °F 81% 29.94 in 10.0 mi NW 8.1 mph - N/A Rain Light Rain
8:14 PM 42.8 °F 37.5 °F 37.4 °F 81% 29.94 in 10.0 mi NW 9.2 mph - N/A   Scattered Clouds
8:33 PM 42.8 °F 37.5 °F 37.4 °F 81% 29.94 in 10.0 mi NW 9.2 mph - N/A   Mostly Cloudy
8:53 PM 41.0 °F 34.7 °F 37.4 °F 87% 29.95 in 10.0 mi NW 10.4 mph - N/A   Overcast
9:13 PM 42.8 °F 37.5 °F 37.4 °F 81% 29.95 in 10.0 mi WNW 9.2 mph - N/A   Overcast
9:33 PM 42.8 °F 36.6 °F 37.4 °F 81% 29.95 in 10.0 mi NW 11.5 mph - N/A   Overcast
9:53 PM 42.8 °F 38.0 °F 35.6 °F 76% 29.95 in 10.0 mi WNW 8.1 mph - N/A   Overcast
10:13 PM 42.8 °F 38.6 °F 35.6 °F 76% 29.96 in 10.0 mi WNW 6.9 mph - N/A   Overcast
10:35 PM 41.0 °F 35.2 °F 35.6 °F 81% 29.96 in 10.0 mi WNW 9.2 mph - N/A   Overcast
10:53 PM 39.2 °F 33.6 °F 35.6 °F 87% 29.96 in 10.0 mi WNW 8.1 mph - N/A   Overcast
11:14 PM 39.2 °F 32.0 °F 35.6 °F 87% 29.96 in 10.0 mi WNW 11.5 mph - N/A   Mostly Cloudy
11:33 PM 39.2 °F 32.0 °F 35.6 °F 87% 29.96 in 10.0 mi WNW 11.5 mph - N/A   Mostly Cloudy
11:53 PM 39.2 °F 32.0 °F 33.8 °F 81% 29.96 in 10.0 mi WNW 11.5 mph - N/A   Scattered Clouds